Latest Weather Observations for Cooktown

IDQ60801

Issued at 9:35 am EST Friday 25 April 2014 (issued every 30 minutes, with the page automatically refreshed every 10 minutes)

About weather observations | Map of weather stations | Latest weather observations for QLD | Other Formats
Station Details ID: 031209 Name: COOKTOWN AIRPORT Lat: -15.45 Lon: 145.19 Height: 4.8 m
Data from the previous 72 hours. | See also: Recent months at Cooktown
Date/Time
EST
Temp
°C
App
Temp
°C
Dew
Point
Rel
Hum
%
Delta-T
°C
Wind Press
QNH
hPa
Press
MSL
hPa
Rain
since 9 am
mm
Dir
 
Spd
km/h
Gust
km/h
Spd
kts
Gust
kts
25/09:30am 27.9 30.0 23.8 78 2.8 ESE 19 26 10 14 1011.9 - 0.0
25/09:08am 26.9 32.0 24.9 89 1.4 SSE 7 11 4 6 1012.0 - 0.0
25/09:00am 26.1 31.1 24.5 91 1.1 S 6 9 3 5 1011.9 1011.8 3.0
25/08:30am 25.4 31.1 24.4 94 0.7 SSW 2 7 1 4 1011.8 - 3.0
25/08:06am 25.0 30.7 23.8 93 0.8 CALM 0 4 0 2 1011.6 - 3.0
25/08:00am 24.9 30.3 23.9 94 0.7 SSW 2 6 1 3 1011.5 - 3.0
25/07:30am 24.5 29.5 23.8 96 0.5 E 4 6 2 3 1011.4 - 3.0
25/07:14am 24.3 29.9 23.6 96 0.5 CALM 0 0 0 0 1011.1 - 3.0
25/07:00am 24.3 29.8 23.4 95 0.6 CALM 0 6 0 3 1011.0 - 3.0
25/06:30am 24.2 28.3 23.2 94 0.7 SSE 7 15 4 8 1010.5 - 3.0
25/06:00am 24.2 28.3 23.3 95 0.6 S 7 13 4 7 1010.2 1010.1 2.8
25/05:49am 24.4 27.3 23.2 93 0.8 S 13 19 7 10 1010.0 - 2.8
25/05:30am 24.6 28.3 23.3 92 0.9 SE 9 13 5 7 1009.9 - 2.8
25/05:26am 24.5 28.2 23.3 93 0.8 SE 9 11 5 6 1009.9 - 2.8
25/05:00am 24.3 29.7 23.3 94 0.7 CALM 0 0 0 0 1009.8 - 2.8
25/04:30am 24.4 28.6 23.1 92 0.9 S 6 7 3 4 1009.5 - 2.8
25/04:21am 24.4 28.6 23.1 92 0.9 S 6 7 3 4 1009.5 - 2.8
25/04:00am 24.1 29.5 23.2 95 0.6 CALM 0 0 0 0 1009.5 - 2.8
25/03:47am 24.1 28.7 23.1 94 0.7 SE 4 7 2 4 1009.5 - 2.8
25/03:30am 23.9 28.0 22.9 94 0.7 SE 6 7 3 4 1009.5 - 2.8
25/03:00am 24.5 28.6 22.9 91 1.1 SSE 6 7 3 4 1009.7 1009.5 2.8
25/02:30am 24.7 28.2 22.8 89 1.3 SE 9 13 5 7 1009.8 - 2.8
25/02:00am 24.8 28.2 22.7 88 1.4 SE 9 13 5 7 1010.0 - 2.8
25/01:30am 24.8 28.1 23.2 91 1.1 SE 11 15 6 8 1010.2 - 2.8
25/01:00am 25.0 28.8 23.4 91 1.1 SE 9 15 5 8 1010.7 - 2.8
25/12:30am 25.0 29.2 23.4 91 1.1 SE 7 13 4 7 1010.8 - 2.8
25/12:00am 25.1 29.2 23.3 90 1.2 SE 7 11 4 6 1011.1 1011.0 2.8
 
Date/Time
EST
Temp
°C
App
Temp
°C
Dew
Point
Rel
Hum
%
Delta-T
°C
Wind Press
QNH
hPa
Press
MSL
hPa
Rain
since 9 am
mm
Dir
 
Spd
km/h
Gust
km/h
Spd
kts
Gust
kts
24/11:30pm 24.9 29.0 23.3 91 1.1 SE 7 9 4 5 1011.3 - 2.8
24/11:00pm 25.1 29.2 23.3 90 1.2 SE 7 11 4 6 1011.5 - 2.8
24/10:30pm 25.4 29.2 23.5 89 1.3 SE 9 13 5 7 1011.7 - 2.8
24/10:00pm 25.3 29.3 23.7 91 1.1 ESE 9 17 5 9 1011.7 - 2.8
24/09:30pm 25.3 29.3 23.7 91 1.1 SE 9 15 5 8 1011.9 - 2.8
24/09:00pm 25.5 29.5 23.7 90 1.2 SE 9 17 5 9 1011.8 1011.7 2.8
24/08:30pm 25.4 29.5 23.9 91 1.0 E 9 13 5 7 1011.5 - 2.8
24/08:00pm 25.5 29.5 23.7 90 1.2 ESE 9 13 5 7 1011.0 - 2.8
24/07:30pm 25.1 29.5 23.8 92 0.9 ESE 7 11 4 6 1010.5 - 2.8
24/07:00pm 25.5 29.5 23.7 90 1.2 ESE 9 15 5 8 1010.1 - 2.8
24/06:30pm 25.8 29.8 23.8 89 1.4 SE 9 13 5 7 1009.8 - 2.8
24/06:00pm 25.9 29.3 23.4 86 1.7 ESE 11 17 6 9 1009.5 1009.4 2.8
24/05:50pm 26.1 29.6 23.6 86 1.7 ESE 11 15 6 8 1009.4 - 2.8
24/05:30pm 26.5 29.9 24.0 86 1.7 ESE 13 17 7 9 1009.3 - 2.8
24/05:21pm 26.6 30.4 24.0 86 1.8 ESE 11 17 6 9 1009.2 - 2.8
24/05:00pm 26.6 30.8 24.1 86 1.7 ESE 9 17 5 9 1008.9 - 2.8
24/04:43pm 26.8 30.5 24.5 87 1.6 ESE 13 19 7 10 1008.9 - 2.8
24/04:30pm 27.1 30.7 24.4 85 1.9 ESE 13 20 7 11 1008.8 - 2.8
24/04:00pm 26.8 30.3 24.9 89 1.3 ESE 15 26 8 14 1008.6 - 2.8
24/03:53pm 26.5 29.9 24.6 89 1.3 ESE 15 26 8 14 1008.5 - 2.8
24/03:30pm 26.5 30.8 24.9 91 1.1 SE 11 15 6 8 1008.4 - 2.8
24/03:00pm 26.4 31.0 25.4 94 0.7 E 11 15 6 8 1008.8 1008.7 2.6
24/02:57pm 26.1 30.5 25.1 94 0.7 E 11 15 6 8 1008.8 - 2.6
24/02:30pm 25.6 29.0 24.7 95 0.6 ESE 15 22 8 12 1009.0 - 2.0
24/02:10pm 26.3 28.7 24.6 90 1.2 ESE 20 30 11 16 1009.1 - 0.2
24/02:00pm 28.6 31.0 24.6 79 2.8 E 20 28 11 15 1009.0 - 0.0
24/01:30pm 28.3 30.4 23.7 76 3.2 ESE 19 28 10 15 1009.3 - 0.0
24/01:00pm 28.9 31.6 24.1 75 3.3 ESE 17 26 9 14 1009.7 - 0.0
24/12:30pm 28.2 30.1 23.5 75 3.2 ESE 19 26 10 14 1010.0 - 0.0
24/12:00pm 29.0 30.5 24.4 76 3.2 E 24 33 13 18 1010.4 1010.4 0.0
24/11:30am 28.3 29.4 23.7 76 3.2 ESE 24 33 13 18 1010.9 - 0.0
24/11:00am 28.2 30.2 23.9 77 3.0 ESE 20 30 11 16 1011.4 - 0.0
24/10:30am 28.3 30.0 24.0 77 3.0 ESE 22 32 12 17 1011.7 - 0.0
24/10:00am 28.6 31.1 24.4 78 2.9 SE 19 28 10 15 1011.8 - 0.0
24/09:30am 28.2 30.6 24.3 79 2.7 ESE 19 28 10 15 1011.6 - 0.0
24/09:06am 27.6 30.0 24.3 82 2.3 SE 19 28 10 15 1011.4 - 0.0
24/09:03am 27.0 29.3 24.1 84 2.0 SE 19 28 10 15 1011.3 - 0.0
24/09:00am 26.9 29.2 24.1 85 1.9 SE 19 28 10 15 1011.3 1011.1 3.2
24/08:30am 26.9 29.0 24.1 85 1.9 SE 20 30 11 16 1011.2 - 3.2
24/08:03am 27.0 30.1 24.1 84 2.0 ESE 15 28 8 15 1011.1 - 3.2
24/08:00am 27.1 30.2 24.2 84 2.0 ESE 15 20 8 11 1011.1 - 3.2
24/07:30am 26.4 29.3 23.9 86 1.7 ESE 15 20 8 11 1010.7 - 3.2
24/07:00am 26.0 30.1 24.0 89 1.4 SE 9 13 5 7 1010.6 - 3.2
24/06:30am 25.2 29.1 23.6 91 1.1 ESE 9 17 5 9 1010.3 - 3.2
24/06:15am 24.9 28.3 23.4 91 1.0 ESE 11 15 6 8 1010.1 - 3.2
24/06:00am 25.0 27.9 23.2 90 1.2 ESE 13 19 7 10 1010.1 1010.0 3.2
24/05:30am 25.3 28.4 23.5 90 1.2 SE 13 20 7 11 1009.7 - 3.2
24/05:00am 25.3 28.6 23.8 91 1.0 SE 13 19 7 10 1009.3 - 3.2
24/04:30am 24.9 28.1 23.7 93 0.8 ESE 13 20 7 11 1009.2 - 3.2
24/04:24am 24.9 28.4 23.6 92 0.9 ESE 11 17 6 9 1009.3 - 3.2
24/04:00am 24.5 28.2 23.3 93 0.8 ESE 9 13 5 7 1009.4 - 3.2
24/03:30am 24.4 28.1 23.2 93 0.8 ESE 9 15 5 8 1009.2 - 3.2
24/03:00am 24.3 27.5 23.1 93 0.8 ESE 11 17 6 9 1009.5 1009.5 3.2
24/02:52am 24.2 27.9 23.2 94 0.7 SE 9 15 5 8 1009.7 - 3.2
24/02:36am 24.3 27.3 23.4 95 0.6 SE 13 19 7 10 1009.9 - 3.2
24/02:30am 24.4 27.1 23.5 95 0.6 SE 15 24 8 13 1010.0 - 3.2
24/02:00am 24.4 27.2 23.7 96 0.5 SE 15 26 8 14 1010.4 - 3.0
24/01:30am 24.5 28.6 23.9 96 0.4 SSE 9 15 5 8 1010.6 - 2.0
24/01:17am 24.6 28.6 23.7 95 0.6 SSE 9 13 5 7 1010.8 - 1.2
24/01:00am 24.7 27.5 23.7 94 0.7 ESE 15 22 8 12 1011.0 - 1.0
24/12:38am 25.0 26.1 23.7 92 0.9 ESE 24 41 13 22 1011.3 - 1.0
24/12:30am 25.3 28.9 23.7 91 1.1 SE 11 20 6 11 1011.4 - 0.8
24/12:06am 25.4 28.3 23.8 91 1.1 SE 15 28 8 15 1011.7 - 0.8
24/12:00am 25.3 28.6 23.8 91 1.0 SE 13 28 7 15 1011.7 1011.6 0.8
 
Date/Time
EST
Temp
°C
App
Temp
°C
Dew
Point
Rel
Hum
%
Delta-T
°C
Wind Press
QNH
hPa
Press
MSL
hPa
Rain
since 9 am
mm
Dir
 
Spd
km/h
Gust
km/h
Spd
kts
Gust
kts
23/11:51pm 25.3 28.7 24.0 92 0.9 SE 13 26 7 14 1011.7 - 0.8
23/11:49pm 25.3 28.7 24.0 92 0.9 SE 13 26 7 14 1011.7 - 0.8
23/11:40pm 25.3 28.3 24.0 92 0.9 SE 15 24 8 13 1011.8 - 0.8
23/11:30pm 25.2 28.2 24.0 93 0.8 SE 15 24 8 13 1011.9 - 0.8
23/11:23pm 25.2 29.1 24.3 95 0.6 SE 11 20 6 11 1012.0 - 0.6
23/11:16pm 25.3 29.1 24.1 93 0.8 SE 11 15 6 8 1012.0 - 0.2
23/11:00pm 25.4 28.8 24.1 92 0.9 SE 13 20 7 11 1012.2 - 0.2
23/10:30pm 25.7 28.4 24.1 91 1.1 ESE 17 24 9 13 1012.4 - 0.2
23/10:00pm 26.3 28.7 23.7 85 1.8 SE 17 28 9 15 1012.2 - 0.2
23/09:30pm 26.4 28.8 23.6 84 1.9 SE 17 26 9 14 1012.3 - 0.2
23/09:00pm 26.4 29.5 23.5 84 2.0 SE 13 24 7 13 1012.3 1012.2 0.2
23/08:30pm 26.2 29.0 23.7 86 1.7 SE 15 22 8 12 1011.8 - 0.2
23/08:00pm 26.2 29.4 23.7 86 1.7 SE 13 19 7 10 1011.4 - 0.2
23/07:30pm 26.3 29.4 23.5 84 1.9 SE 13 20 7 11 1011.1 - 0.2
23/07:00pm 26.4 29.5 23.5 84 2.0 SE 13 22 7 12 1010.9 - 0.2
23/06:30pm 26.2 29.3 23.6 85 1.8 SE 13 22 7 12 1010.6 - 0.2
23/06:00pm 26.4 29.3 23.8 85 1.8 SE 15 26 8 14 1010.5 1010.4 0.2
23/05:30pm 26.9 29.7 23.7 82 2.2 ESE 15 20 8 11 1010.3 - 0.2
23/05:00pm 27.2 29.9 23.4 80 2.6 ESE 15 26 8 14 1010.3 - 0.2
23/04:30pm 27.5 30.7 23.7 80 2.6 ESE 13 20 7 11 1010.2 - 0.2
23/04:00pm 27.3 29.2 23.5 80 2.6 ESE 19 26 10 14 1010.0 - 0.2
23/03:30pm 27.4 30.9 24.2 83 2.2 ESE 13 20 7 11 1010.2 - 0.2
23/03:00pm 26.8 29.4 23.9 84 2.0 ESE 17 26 9 14 1010.2 1010.1 0.2
23/02:44pm 26.9 30.3 24.7 88 1.5 ESE 15 20 8 11 1010.1 - 0.2
23/02:30pm 26.9 29.6 24.7 88 1.5 ESE 19 32 10 17 1010.1 - 0.2
23/02:00pm 27.8 30.9 24.2 81 2.5 ESE 15 30 8 16 1010.4 - 0.2
23/01:48pm 27.8 30.2 24.6 83 2.2 ESE 20 28 11 15 1010.5 - 0.2
23/01:30pm 29.1 32.0 24.4 76 3.3 ESE 17 24 9 13 1010.6 - 0.2
23/01:22pm 28.9 31.7 24.3 76 3.2 ESE 17 30 9 16 1010.8 - 0.2
23/01:00pm 28.4 30.4 23.6 75 3.3 ESE 19 28 10 15 1010.9 - 0.2
23/12:54pm 28.6 30.5 23.8 75 3.3 ESE 20 30 11 16 1011.0 - 0.2
23/12:30pm 28.1 30.3 23.9 78 2.9 ESE 19 32 10 17 1011.3 - 0.2
23/12:00pm 28.4 31.3 24.4 79 2.8 SE 17 28 9 15 1011.8 1011.7 0.2
23/11:30am 28.3 31.0 24.1 78 2.9 ESE 17 24 9 13 1012.1 - 0.2
23/11:00am 28.3 30.7 24.6 80 2.6 ESE 20 32 11 17 1012.5 - 0.0
23/10:30am 28.1 30.5 24.2 79 2.7 SE 19 30 10 16 1012.7 - 0.0
23/10:27am 28.1 30.0 24.4 80 2.6 ESE 22 33 12 18 1012.7 - 0.0
23/10:00am 27.8 28.9 24.3 81 2.4 ESE 26 35 14 19 1012.9 - 0.0
23/09:30am 27.9 30.0 24.1 80 2.6 E 20 30 11 16 1012.8 - 0.0
23/09:00am 27.1 28.8 24.1 84 2.1 ESE 22 28 12 15 1012.6 1012.6 3.2
23/08:30am 26.8 29.0 24.2 86 1.8 ESE 20 33 11 18 1012.5 - 3.2
23/08:00am 27.0 28.4 23.5 81 2.4 ESE 22 33 12 18 1012.3 - 3.2
23/07:49am 27.0 28.8 23.6 81 2.3 ESE 20 30 11 16 1012.3 - 3.2
23/07:30am 26.2 28.8 23.9 87 1.6 ESE 17 32 9 17 1012.3 - 3.2
23/07:00am 25.6 27.8 24.0 91 1.1 SE 19 30 10 16 1011.8 - 3.2
23/06:52am 25.7 28.2 23.8 89 1.3 ESE 17 24 9 13 1011.7 - 3.0
23/06:33am 25.4 28.5 24.1 92 0.9 ESE 15 20 8 11 1011.3 - 2.6
23/06:30am 25.4 28.1 24.2 93 0.8 ESE 17 30 9 16 1011.3 - 2.2
23/06:00am 25.8 27.4 23.8 89 1.4 ESE 22 32 12 17 1010.8 1010.7 2.0
23/05:30am 25.8 28.2 23.6 88 1.5 ESE 17 28 9 15 1010.6 - 2.0
23/05:00am 25.7 28.0 23.5 88 1.5 SE 17 28 9 15 1010.4 - 2.0
23/04:30am 25.8 27.8 23.6 88 1.5 ESE 19 32 10 17 1010.6 - 2.0
23/04:00am 25.6 27.5 23.4 88 1.5 ESE 19 32 10 17 1010.4 - 2.0
23/03:30am 25.6 28.5 23.8 90 1.2 ESE 15 24 8 13 1010.6 - 2.0
23/03:00am 25.3 28.6 23.8 91 1.0 SE 13 24 7 13 1011.0 1011.0 2.0
23/02:30am 25.3 28.6 23.8 91 1.0 ESE 13 20 7 11 1011.4 - 1.6
23/02:00am 25.3 28.1 23.7 91 1.1 SE 15 24 8 13 1011.4 - 1.6
23/01:30am 25.4 28.3 23.8 91 1.1 ESE 15 28 8 15 1011.9 - 1.6
23/01:00am 25.1 27.5 23.6 91 1.0 ESE 17 26 9 14 1012.1 - 1.6
23/12:54am 25.0 27.3 23.5 91 1.0 ESE 17 26 9 14 1012.2 - 1.6
23/12:50am 24.9 27.2 23.4 91 1.0 ESE 17 24 9 13 1012.3 - 1.6
23/12:30am 25.0 27.8 23.7 92 0.9 ESE 15 22 8 12 1012.6 - 1.6
23/12:00am 25.0 27.3 23.5 91 1.0 SE 17 26 9 14 1013.1 1013.0 1.4
 
Date/Time
EST
Temp
°C
App
Temp
°C
Dew
Point
Rel
Hum
%
Delta-T
°C
Wind Press
QNH
hPa
Press
MSL
hPa
Rain
since 9 am
mm
Dir
 
Spd
km/h
Gust
km/h
Spd
kts
Gust
kts
22/11:30pm 25.1 28.1 23.3 90 1.2 ESE 13 20 7 11 1013.2 - 1.4
22/11:29pm 25.2 28.2 23.3 89 1.3 ESE 13 20 7 11 1013.3 - 1.4
22/11:25pm 25.1 28.1 23.3 90 1.2 SE 13 20 7 11 1013.3 - 1.4
22/11:00pm 25.1 27.8 23.5 91 1.1 SE 15 26 8 14 1013.4 - 1.4
22/10:50pm 25.0 27.7 23.5 91 1.0 ESE 15 26 8 14 1013.4 - 1.4
22/10:37pm 24.9 27.2 23.4 91 1.0 ESE 17 26 9 14 1013.4 - 1.4
22/10:34pm 25.0 27.3 23.4 91 1.1 ESE 17 26 9 14 1013.4 - 1.4
22/10:30pm 25.3 27.5 23.2 88 1.4 SE 17 26 9 14 1013.4 - 1.4
22/10:00pm 25.4 27.8 23.0 86 1.6 SE 15 24 8 13 1013.6 - 1.4
22/09:30pm 25.5 28.3 23.0 86 1.7 SE 13 22 7 12 1013.7 - 1.4
22/09:00pm 25.7 28.3 22.7 83 2.0 ESE 13 28 7 15 1014.0 1013.9 1.4
22/08:30pm 25.9 28.1 22.6 82 2.2 SE 15 22 8 12 1013.9 - 1.4
22/08:00pm 26.1 28.9 23.0 83 2.1 SE 13 20 7 11 1013.7 - 1.4
22/07:30pm 26.1 28.6 22.5 80 2.4 SE 13 20 7 11 1013.4 - 1.4
22/07:00pm 26.0 28.5 22.4 80 2.4 SE 13 20 7 11 1013.1 - 1.4
22/06:30pm 26.0 29.0 22.7 82 2.2 SE 11 19 6 10 1012.8 - 1.4
22/06:00pm 26.1 28.5 22.2 79 2.6 SE 13 20 7 11 1012.6 1012.5 1.4
22/05:30pm 26.3 28.6 22.0 77 2.9 SE 13 22 7 12 1012.4 - 1.4
22/05:00pm 26.5 27.9 21.9 76 3.1 SE 17 26 9 14 1012.2 - 1.4
22/04:30pm 26.8 27.7 21.9 74 3.3 SE 20 32 11 17 1011.9 - 1.4
22/04:00pm 27.0 28.6 22.1 74 3.3 SE 17 28 9 15 1011.9 - 1.4
22/03:30pm 27.3 29.0 22.4 74 3.3 ESE 17 35 9 19 1011.9 - 1.4
22/03:00pm 27.5 28.0 22.0 72 3.7 SE 22 35 12 19 1012.1 1012.0 1.4
22/02:30pm 27.2 27.6 21.7 72 3.7 SE 22 35 12 19 1012.2 - 1.4
22/02:00pm 27.5 28.0 22.0 72 3.7 SE 22 35 12 19 1012.5 - 1.4
22/01:30pm 27.6 28.4 22.4 73 3.5 SE 22 35 12 19 1012.9 - 1.4
22/01:00pm 27.6 28.7 22.3 73 3.6 SE 20 43 11 23 1013.4 - 1.4
22/12:30pm 27.5 28.8 22.6 74 3.3 ESE 20 30 11 16 1013.9 - 1.4
22/12:00pm 27.1 27.0 21.5 71 3.7 ESE 24 32 13 17 1014.3 1014.3 1.4
22/11:30am 27.3 28.0 22.2 73 3.4 ESE 22 35 12 19 1014.6 - 1.4
22/11:00am 27.4 28.5 23.1 77 2.9 ESE 22 35 12 19 1015.0 - 1.4
22/10:30am 26.9 27.3 22.4 76 3.0 ESE 24 37 13 20 1015.2 - 1.4
22/10:00am 26.3 27.4 23.1 82 2.2 ESE 22 33 12 18 1015.3 - 1.4

Other Formats:

Comma delimited format used in spreadsheet applications
http://www.bom.gov.au/fwo/IDQ60801/IDQ60801.95283.axf

JavaScript Object Notation format (JSON) in row-major order
http://www.bom.gov.au/fwo/IDQ60801/IDQ60801.95283.json